Time;durP1;ratioP1;P1;durP2;ratioP2;P2;SDS_P1;SDS_P2;PMS_P1;PMS_P2;Temp;Humidity;BMP_temperature;BMP_pressure;BME280_temperature;BME280_humidity;BME280_pressure;Samples;Min_cycle;Max_cycle;Signal;HPM_P1;HPM_P2
2021/03/17 00:00:11;;;;;;;28.00;13.83;;;5.20;99.90;;;;;;5032263;28;20656;-65
2021/03/17 00:02:37;;;;;;;30.90;12.83;;;5.20;99.90;;;;;;5032026;28;20174;-64
2021/03/17 00:05:05;;;;;;;23.40;11.80;;;5.20;99.90;;;;;;5032022;28;20262;-65
2021/03/17 00:07:30;;;;;;;26.93;13.63;;;5.20;99.90;;;;;;5031475;28;20711;-64
2021/03/17 00:09:56;;;;;;;25.70;13.03;;;5.20;99.90;;;;;;5031819;28;20206;-64
2021/03/17 00:12:22;;;;;;;28.93;12.77;;;5.30;99.90;;;;;;5031604;28;20262;-64
2021/03/17 00:14:47;;;;;;;30.07;15.27;;;5.30;99.90;;;;;;5031745;28;20575;-65
2021/03/17 00:17:13;;;;;;;33.10;15.33;;;5.20;99.90;;;;;;5031766;28;20696;-66
2021/03/17 00:19:39;;;;;;;35.70;15.33;;;5.20;99.90;;;;;;5032443;28;20164;-66
2021/03/17 00:22:06;;;;;;;38.70;16.47;;;5.30;99.90;;;;;;5031718;28;20186;-65
2021/03/17 00:24:31;;;;;;;29.20;15.87;;;5.30;99.90;;;;;;5031976;28;20168;-65
2021/03/17 00:26:57;;;;;;;31.93;16.27;;;5.20;99.90;;;;;;5031786;28;20210;-66
2021/03/17 00:29:23;;;;;;;41.53;17.30;;;5.20;99.90;;;;;;5031635;28;20203;-66
2021/03/17 00:31:48;;;;;;;32.73;16.13;;;5.30;99.90;;;;;;5030953;28;20179;-65
2021/03/17 00:34:14;;;;;;;40.80;17.17;;;5.30;99.90;;;;;;5031560;28;20195;-66
2021/03/17 00:36:39;;;;;;;44.40;19.30;;;5.20;99.90;;;;;;5031586;28;20180;-66
2021/03/17 00:39:05;;;;;;;39.50;18.97;;;5.20;99.90;;;;;;5031762;28;20196;-66
2021/03/17 00:41:31;;;;;;;43.73;20.27;;;5.20;99.90;;;;;;5030980;28;20229;-65
2021/03/17 00:43:57;;;;;;;42.27;19.40;;;5.20;99.90;;;;;;5031595;28;20168;-65
2021/03/17 00:46:22;;;;;;;35.27;19.27;;;5.30;99.90;;;;;;5031617;28;20187;-66
2021/03/17 00:48:48;;;;;;;35.07;18.70;;;5.30;99.90;;;;;;5031344;28;20211;-64
2021/03/17 00:51:13;;;;;;;42.20;21.50;;;5.30;99.90;;;;;;5030734;28;20295;-64
2021/03/17 00:53:39;;;;;;;37.70;19.77;;;5.30;99.90;;;;;;5031067;28;20186;-64
2021/03/17 00:56:05;;;;;;;45.27;21.70;;;5.30;99.90;;;;;;5031337;28;20200;-64
2021/03/17 00:58:30;;;;;;;40.23;20.03;;;5.30;99.90;;;;;;5031010;28;20199;-64
2021/03/17 01:00:56;;;;;;;41.63;21.07;;;5.30;99.90;;;;;;5031056;28;20230;-63
2021/03/17 01:03:22;;;;;;;41.93;21.23;;;5.30;99.90;;;;;;5030940;28;20191;-64
2021/03/17 01:05:47;;;;;;;42.57;20.77;;;5.30;99.90;;;;;;5031403;28;20219;-64
2021/03/17 01:08:14;;;;;;;38.40;18.73;;;5.30;99.90;;;;;;5030828;28;20203;-64
2021/03/17 01:10:46;;;;;;;36.70;19.37;;;5.30;99.90;;;;;;5030654;28;20179;-66
2021/03/17 01:13:13;;;;;;;33.93;17.20;;;5.30;99.90;;;;;;5031806;28;20171;-66
2021/03/17 01:15:39;;;;;;;38.87;17.47;;;5.30;99.90;;;;;;5031046;28;20203;-65
2021/03/17 01:18:06;;;;;;;28.13;15.37;;;5.20;99.90;;;;;;5033971;28;20191;-66
2021/03/17 01:20:33;;;;;;;26.23;14.97;;;5.20;99.90;;;;;;5035106;28;20537;-65
2021/03/17 01:22:59;;;;;;;30.90;16.57;;;5.20;99.90;;;;;;5035753;28;20183;-65
2021/03/17 01:25:37;;;;;;;35.13;15.33;;;5.20;99.90;;;;;;5035082;28;20182;-66
2021/03/17 01:28:04;;;;;;;28.50;14.50;;;5.20;99.90;;;;;;5035309;28;20197;-65
2021/03/17 01:30:41;;;;;;;27.33;14.73;;;5.20;99.90;;;;;;5034351;28;20187;-65
2021/03/17 01:33:08;;;;;;;27.77;14.20;;;5.10;99.90;;;;;;5034199;28;20190;-64
2021/03/17 01:35:34;;;;;;;21.73;12.33;;;5.10;99.90;;;;;;5034389;28;20549;-64
2021/03/17 01:38:00;;;;;;;27.80;14.07;;;5.10;99.90;;;;;;5034725;28;20195;-64
2021/03/17 01:40:28;;;;;;;22.73;13.90;;;5.10;99.90;;;;;;5032888;28;20180;-65
2021/03/17 01:42:54;;;;;;;25.30;14.03;;;5.10;99.90;;;;;;5035017;28;20176;-65
2021/03/17 01:45:21;;;;;;;24.90;13.93;;;5.20;99.90;;;;;;5034742;28;20171;-66
2021/03/17 01:47:47;;;;;;;27.67;15.03;;;5.20;99.90;;;;;;5034583;28;20242;-65
2021/03/17 01:50:24;;;;;;;25.70;14.00;;;5.10;99.90;;;;;;5034156;28;20191;-65
2021/03/17 01:52:50;;;;;;;23.27;13.30;;;5.10;99.90;;;;;;5034450;28;20190;-65
2021/03/17 01:55:18;;;;;;;29.87;15.10;;;5.00;99.90;;;;;;5034646;28;20211;-65
2021/03/17 01:57:45;;;;;;;27.03;14.40;;;5.10;99.90;;;;;;5034552;28;20235;-66
2021/03/17 02:00:13;;;;;;;28.03;14.67;;;5.00;99.90;;;;;;5034190;28;20203;-66
2021/03/17 02:02:48;;;;;;;26.57;16.10;;;5.00;99.90;;;;;;5034455;28;20263;-66
2021/03/17 02:05:16;;;;;;;30.13;16.30;;;5.00;99.90;;;;;;5034676;28;20179;-66
2021/03/17 02:07:42;;;;;;;31.80;16.43;;;5.00;99.90;;;;;;5034333;28;20238;-66
2021/03/17 02:10:19;;;;;;;32.50;16.67;;;5.00;99.90;;;;;;5034074;28;20214;-66
2021/03/17 02:12:48;;;;;;;35.40;17.27;;;5.10;99.90;;;;;;5034328;28;20187;-66
2021/03/17 02:15:41;;;;;;;31.80;19.10;;;5.10;99.90;;;;;;5034200;28;20207;-66
2021/03/17 02:18:22;;;;;;;36.17;18.53;;;5.00;99.90;;;;;;5033716;28;20545;-66
2021/03/17 02:21:36;;;;;;;32.80;17.03;;;5.00;99.90;;;;;;5034022;28;20182;-66
2021/03/17 02:24:34;;;;;;;28.00;15.67;;;5.00;99.90;;;;;;5014629;28;20214;-66
2021/03/17 02:27:35;;;;;;;26.57;14.73;;;4.90;99.90;;;;;;5022637;28;20176;-66
2021/03/17 02:30:16;;;;;;;29.37;13.77;;;4.90;99.90;;;;;;5033106;28;20177;-66
2021/03/17 02:33:01;;;;;;;27.80;13.23;;;4.80;99.90;;;;;;5033790;28;20175;-66
2021/03/17 02:35:30;;;;;;;25.10;13.00;;;4.80;99.90;;;;;;5033888;28;20207;-64
2021/03/17 02:38:03;;;;;;;21.17;10.17;;;4.80;99.90;;;;;;5033362;28;20286;-66
2021/03/17 02:40:34;;;;;;;19.17;11.00;;;4.80;99.90;;;;;;5033494;28;20167;-66
2021/03/17 02:43:35;;;;;;;17.70;9.73;;;4.80;99.90;;;;;;5033636;28;20180;-66
2021/03/17 02:46:06;;;;;;;17.30;9.20;;;4.80;99.90;;;;;;5033278;28;20191;-66
2021/03/17 02:48:38;;;;;;;13.63;9.10;;;4.80;99.90;;;;;;5032958;28;20215;-65
2021/03/17 02:51:09;;;;;;;13.43;9.00;;;4.80;99.90;;;;;;5065168;22;20691;-68
2021/03/17 02:53:37;;;;;;;14.83;9.57;;;4.80;99.90;;;;;;5062657;28;20174;-71
2021/03/17 02:56:13;;;;;;;12.33;7.90;;;4.80;99.90;;;;;;5061735;28;20678;-68
2021/03/17 02:58:44;;;;;;;18.70;10.53;;;4.80;99.90;;;;;;5062736;28;20651;-68
2021/03/17 03:01:13;;;;;;;15.30;8.67;;;4.80;99.90;;;;;;5046601;28;20195;-65
2021/03/17 03:03:39;;;;;;;14.00;9.13;;;4.80;99.90;;;;;;5043009;28;20164;-68
2021/03/17 03:06:07;;;;;;;14.57;9.40;;;4.80;99.90;;;;;;5040848;28;20640;-71
2021/03/17 03:08:36;;;;;;;17.03;9.30;;;4.80;99.90;;;;;;5043227;28;20167;-68
2021/03/17 03:11:04;;;;;;;12.03;8.30;;;4.80;99.90;;;;;;5041690;28;20211;-69
2021/03/17 03:13:31;;;;;;;14.33;9.07;;;4.80;99.90;;;;;;5041913;28;20270;-70
2021/03/17 03:15:57;;;;;;;13.57;8.67;;;4.70;99.90;;;;;;5040894;28;20191;-68
2021/03/17 03:18:24;;;;;;;15.40;8.73;;;4.70;99.90;;;;;;5041510;28;20179;-71
2021/03/17 03:20:54;;;;;;;14.10;8.90;;;4.70;99.90;;;;;;5040297;28;20196;-68
2021/03/17 03:23:21;;;;;;;15.07;9.30;;;4.60;99.90;;;;;;5041292;28;20164;-68
2021/03/17 03:25:49;;;;;;;11.67;7.80;;;4.70;99.90;;;;;;5039583;28;20322;-68
2021/03/17 03:28:15;;;;;;;12.70;8.83;;;4.70;99.90;;;;;;5040742;28;20171;-68
2021/03/17 03:30:47;;;;;;;12.33;8.03;;;4.70;99.90;;;;;;5041628;28;20557;-69
2021/03/17 03:33:13;;;;;;;12.63;7.87;;;4.70;99.90;;;;;;5042190;28;20171;-70
2021/03/17 03:35:41;;;;;;;10.37;8.00;;;4.70;99.90;;;;;;5041781;28;20265;-69
2021/03/17 03:38:09;;;;;;;9.60;7.13;;;4.70;99.90;;;;;;5040802;28;20172;-68
2021/03/17 03:40:35;;;;;;;12.80;9.07;;;4.70;99.90;;;;;;5039356;28;20652;-69
2021/03/17 03:43:01;;;;;;;13.23;7.90;;;4.70;99.90;;;;;;5040700;28;20301;-68
2021/03/17 03:45:27;;;;;;;9.67;7.90;;;4.70;99.90;;;;;;5039719;28;20215;-68
2021/03/17 03:47:53;;;;;;;11.03;7.97;;;4.70;99.90;;;;;;5040330;28;20257;-67
2021/03/17 03:50:22;;;;;;;12.97;8.83;;;4.80;99.90;;;;;;5039891;28;20278;-69
2021/03/17 03:53:18;;;;;;;11.87;9.67;;;4.70;99.90;;;;;;5039554;28;20167;-69
2021/03/17 03:56:06;;;;;;;11.90;9.03;;;4.80;99.90;;;;;;5038509;28;20235;-68
2021/03/17 03:58:41;;;;;;;14.13;9.53;;;4.70;99.90;;;;;;5039336;28;20186;-67
2021/03/17 04:01:26;;;;;;;12.13;9.30;;;4.70;99.90;;;;;;5039232;28;20275;-68
2021/03/17 04:03:55;;;;;;;14.70;9.70;;;4.70;99.90;;;;;;5040097;28;20809;-69
2021/03/17 04:06:21;;;;;;;14.03;10.07;;;4.70;99.90;;;;;;5038433;28;20584;-69
2021/03/17 04:08:49;;;;;;;13.37;9.43;;;4.60;99.90;;;;;;5039234;28;20172;-69
2021/03/17 04:11:17;;;;;;;13.00;9.87;;;4.60;99.90;;;;;;5039303;28;20184;-67
2021/03/17 04:13:45;;;;;;;14.93;10.53;;;4.60;99.90;;;;;;5039147;28;20207;-71
2021/03/17 04:16:12;;;;;;;13.67;10.30;;;4.50;99.90;;;;;;5038804;28;20196;-71
2021/03/17 04:18:49;;;;;;;14.17;10.10;;;4.60;99.90;;;;;;5038547;28;20194;-70
2021/03/17 04:21:26;;;;;;;12.90;10.13;;;4.60;99.90;;;;;;5039491;28;20183;-71
2021/03/17 04:23:56;;;;;;;9.63;7.50;;;4.60;99.90;;;;;;5038767;28;20184;-69
2021/03/17 04:26:23;;;;;;;10.43;6.80;;;4.60;99.90;;;;;;5039034;28;20171;-70
2021/03/17 04:28:51;;;;;;;8.90;6.47;;;4.50;99.90;;;;;;5038654;28;20174;-72
2021/03/17 04:31:18;;;;;;;8.20;7.00;;;4.40;99.90;;;;;;5037830;28;20548;-68
2021/03/17 04:33:45;;;;;;;7.67;6.53;;;4.30;99.90;;;;;;5038872;28;20175;-68
2021/03/17 04:36:12;;;;;;;7.57;6.03;;;4.40;99.90;;;;;;5039866;28;20199;-69
2021/03/17 04:38:39;;;;;;;9.10;7.00;;;4.30;99.90;;;;;;5039626;28;20167;-69
2021/03/17 04:41:06;;;;;;;8.83;7.20;;;4.40;99.90;;;;;;5040451;28;20187;-70
2021/03/17 04:43:32;;;;;;;9.17;7.27;;;4.30;99.90;;;;;;5041213;28;20541;-69
2021/03/17 04:46:01;;;;;;;8.70;7.07;;;4.30;99.90;;;;;;5039717;28;20183;-68
2021/03/17 04:48:28;;;;;;;8.87;7.20;;;4.30;99.90;;;;;;5039874;28;20671;-70
2021/03/17 04:50:54;;;;;;;7.83;6.90;;;4.30;99.90;;;;;;5037907;28;20218;-70
2021/03/17 04:53:21;;;;;;;6.73;5.90;;;4.30;99.90;;;;;;5038698;28;20187;-71
2021/03/17 04:55:47;;;;;;;8.23;6.30;;;4.20;99.90;;;;;;5037033;28;20248;-66
2021/03/17 04:58:16;;;;;;;8.60;6.13;;;4.20;99.90;;;;;;5031451;28;20184;-66
2021/03/17 05:00:46;;;;;;;9.97;6.37;;;4.20;99.90;;;;;;5030992;28;20199;-66
2021/03/17 05:03:15;;;;;;;8.70;6.33;;;4.20;99.90;;;;;;5031309;28;20692;-66
2021/03/17 05:05:43;;;;;;;9.20;6.67;;;4.20;99.90;;;;;;5031209;28;20325;-66
2021/03/17 05:08:09;;;;;;;10.70;8.03;;;4.20;99.90;;;;;;5031259;28;20175;-66
2021/03/17 05:10:38;;;;;;;9.00;7.10;;;4.20;99.90;;;;;;5030711;28;20199;-66
2021/03/17 05:13:08;;;;;;;12.27;7.10;;;4.20;99.90;;;;;;5031242;28;20663;-66
2021/03/17 05:15:35;;;;;;;9.67;8.00;;;4.20;99.90;;;;;;5031165;28;20360;-66
2021/03/17 05:18:01;;;;;;;8.87;7.67;;;4.20;99.90;;;;;;5031197;28;20171;-66
2021/03/17 05:20:28;;;;;;;11.10;8.10;;;4.20;99.90;;;;;;5030564;28;20207;-66
2021/03/17 05:22:55;;;;;;;15.00;8.37;;;4.20;99.90;;;;;;5031290;28;20166;-66
2021/03/17 05:25:22;;;;;;;9.00;7.57;;;4.30;99.90;;;;;;5031069;28;20229;-67
2021/03/17 05:27:54;;;;;;;9.60;7.40;;;4.30;99.90;;;;;;5031100;28;20167;-64
2021/03/17 05:30:21;;;;;;;10.17;8.80;;;4.30;99.90;;;;;;5030308;28;20195;-66
2021/03/17 05:32:49;;;;;;;11.53;8.33;;;4.30;99.90;;;;;;5031506;28;20567;-66
2021/03/17 05:35:15;;;;;;;12.10;9.47;;;4.30;99.90;;;;;;5030722;28;20235;-64
2021/03/17 05:37:41;;;;;;;10.20;8.47;;;4.40;99.90;;;;;;5031082;28;20163;-66
2021/03/17 05:40:12;;;;;;;13.37;10.00;;;4.40;99.90;;;;;;5030435;28;20568;-67
2021/03/17 05:42:38;;;;;;;12.93;10.00;;;4.30;99.90;;;;;;5031063;28;20222;-64
2021/03/17 05:45:08;;;;;;;13.63;10.00;;;4.40;99.90;;;;;;5030824;28;20175;-66
2021/03/17 05:47:36;;;;;;;11.77;9.17;;;4.30;99.90;;;;;;5031238;28;20168;-66
2021/03/17 05:50:01;;;;;;;13.13;9.83;;;4.30;99.90;;;;;;5030292;28;20199;-66
2021/03/17 05:52:28;;;;;;;11.70;8.87;;;4.30;99.90;;;;;;5030609;28;20218;-66
2021/03/17 05:54:54;;;;;;;12.03;8.90;;;4.30;99.90;;;;;;5030617;28;20682;-64
2021/03/17 05:57:19;;;;;;;16.23;10.43;;;4.30;99.90;;;;;;5031114;28;20180;-66
2021/03/17 05:59:45;;;;;;;12.70;8.90;;;4.30;99.90;;;;;;5030278;28;20649;-66
2021/03/17 06:02:13;;;;;;;14.37;10.00;;;4.30;99.90;;;;;;5030720;28;20172;-66
2021/03/17 06:04:39;;;;;;;14.17;10.27;;;4.30;99.90;;;;;;5032316;28;20266;-66
2021/03/17 06:07:11;;;;;;;14.40;11.00;;;4.30;99.90;;;;;;5034406;28;20250;-66
2021/03/17 06:09:37;;;;;;;14.47;11.00;;;4.30;99.90;;;;;;5034042;28;20184;-66
2021/03/17 06:12:07;;;;;;;13.50;10.20;;;4.30;99.90;;;;;;5033520;28;20262;-66
2021/03/17 06:14:34;;;;;;;16.77;10.50;;;4.30;99.90;;;;;;5033568;28;20203;-66
2021/03/17 06:17:03;;;;;;;13.50;9.57;;;4.30;99.90;;;;;;5034328;28;20166;-66
2021/03/17 06:19:32;;;;;;;14.87;10.73;;;4.30;99.90;;;;;;5033942;28;20221;-66
2021/03/17 06:21:59;;;;;;;15.63;11.10;;;4.30;99.90;;;;;;5033789;28;20247;-66
2021/03/17 06:24:27;;;;;;;13.03;9.03;;;4.30;99.90;;;;;;5033922;28;20653;-66
2021/03/17 06:26:54;;;;;;;17.67;11.37;;;4.40;99.90;;;;;;5034038;28;20253;-66
2021/03/17 06:29:20;;;;;;;16.60;11.37;;;4.40;99.90;;;;;;5033904;28;20255;-66
2021/03/17 06:31:48;;;;;;;16.17;11.00;;;4.40;99.90;;;;;;5032879;28;20234;-66
2021/03/17 06:34:14;;;;;;;16.53;10.97;;;4.40;99.90;;;;;;5033735;28;20198;-66
2021/03/17 06:36:51;;;;;;;16.17;10.60;;;4.50;99.90;;;;;;5033521;28;20175;-66
2021/03/17 06:39:18;;;;;;;18.80;11.57;;;4.50;99.90;;;;;;5033967;28;20163;-66
2021/03/17 06:41:47;;;;;;;14.37;9.73;;;4.50;99.90;;;;;;5033141;28;20231;-66
2021/03/17 06:44:19;;;;;;;15.70;10.20;;;4.60;99.90;;;;;;5033729;28;20543;-66
2021/03/17 06:46:44;;;;;;;14.90;10.90;;;4.50;99.90;;;;;;5033745;28;20172;-66
2021/03/17 06:49:10;;;;;;;15.67;10.80;;;4.50;99.90;;;;;;5017195;28;20172;-66
2021/03/17 06:51:35;;;;;;;17.87;11.10;;;4.60;99.90;;;;;;5028526;28;20250;-66
2021/03/17 06:54:03;;;;;;;14.67;10.00;;;4.70;99.90;;;;;;5033162;28;20259;-67
2021/03/17 06:56:36;;;;;;;14.43;10.70;;;4.80;99.90;;;;;;5033191;28;20179;-67
2021/03/17 06:59:06;;;;;;;17.73;11.40;;;4.80;99.90;;;;;;5033279;28;20171;-67
2021/03/17 07:01:42;;;;;;;15.57;11.40;;;4.80;99.90;;;;;;5032677;28;20196;-67
2021/03/17 07:04:19;;;;;;;13.73;10.03;;;4.80;99.90;;;;;;5013386;28;20172;-67
2021/03/17 07:06:58;;;;;;;10.40;7.73;;;4.80;99.90;;;;;;5028275;28;20261;-67
2021/03/17 07:09:26;;;;;;;12.40;9.53;;;4.80;99.90;;;;;;5032794;28;20189;-66
2021/03/17 07:12:04;;;;;;;13.10;8.90;;;4.70;99.90;;;;;;5032387;28;20198;-67
2021/03/17 07:14:40;;;;;;;15.37;9.93;;;4.80;99.90;;;;;;5032483;28;20302;-67
2021/03/17 07:17:26;;;;;;;13.93;9.57;;;4.80;99.90;;;;;;5032935;28;20250;-66
2021/03/17 07:19:52;;;;;;;15.47;10.33;;;4.80;99.90;;;;;;5032253;28;20297;-66
2021/03/17 07:22:19;;;;;;;13.50;9.10;;;4.80;99.90;;;;;;5032543;28;20172;-66
2021/03/17 07:24:50;;;;;;;12.37;9.30;;;4.80;99.90;;;;;;5032570;28;20175;-66
2021/03/17 07:27:17;;;;;;;14.33;10.67;;;4.80;99.90;;;;;;5032823;28;20545;-66
2021/03/17 07:29:43;;;;;;;14.33;10.40;;;4.90;99.90;;;;;;5032219;28;20187;-66
2021/03/17 07:32:09;;;;;;;16.63;11.07;;;4.90;99.90;;;;;;5031233;28;20168;-66
2021/03/17 07:34:35;;;;;;;14.73;9.47;;;5.00;99.90;;;;;;5032043;28;20210;-66
2021/03/17 07:37:03;;;;;;;11.90;9.13;;;5.10;99.90;;;;;;5032589;28;20172;-66
2021/03/17 07:39:40;;;;;;;14.33;10.63;;;5.10;99.90;;;;;;5026394;28;20183;-66
2021/03/17 07:42:11;;;;;;;18.07;10.87;;;5.10;99.90;;;;;;5030908;28;20182;-67
2021/03/17 07:44:39;;;;;;;12.97;9.50;;;5.20;99.90;;;;;;5031512;28;20787;-66
2021/03/17 07:47:07;;;;;;;14.00;9.20;;;5.30;99.90;;;;;;5032530;28;20168;-66
2021/03/17 07:49:35;;;;;;;13.40;9.67;;;5.30;99.90;;;;;;5032148;28;20262;-66
2021/03/17 07:52:01;;;;;;;11.37;8.40;;;5.30;99.90;;;;;;5031613;28;20191;-66
2021/03/17 07:54:37;;;;;;;11.30;9.13;;;5.30;99.90;;;;;;5031323;28;20195;-66
2021/03/17 07:57:06;;;;;;;14.83;9.47;;;5.40;99.90;;;;;;5032382;28;20167;-66
2021/03/17 07:59:34;;;;;;;10.70;8.53;;;5.30;99.90;;;;;;5031842;28;20164;-66
2021/03/17 08:02:01;;;;;;;10.43;7.83;;;5.30;99.90;;;;;;5031689;28;20178;-66
2021/03/17 08:04:29;;;;;;;12.43;9.23;;;5.30;99.90;;;;;;5031883;28;20195;-66
2021/03/17 08:07:05;;;;;;;14.03;10.77;;;5.30;99.90;;;;;;5031987;28;20199;-66
2021/03/17 08:09:32;;;;;;;15.87;10.40;;;5.30;99.90;;;;;;5031683;28;20286;-66
2021/03/17 08:12:02;;;;;;;15.47;11.60;;;5.30;99.90;;;;;;5031154;28;20183;-67
2021/03/17 08:14:30;;;;;;;15.77;10.83;;;5.30;99.90;;;;;;5030944;28;20199;-66
2021/03/17 08:16:56;;;;;;;13.47;10.33;;;5.30;99.90;;;;;;5031554;28;20522;-66
2021/03/17 08:19:25;;;;;;;15.67;12.10;;;5.40;99.90;;;;;;5031453;28;20167;-66
2021/03/17 08:21:56;;;;;;;14.63;10.77;;;5.50;99.90;;;;;;5031189;28;20195;-66
2021/03/17 08:24:36;;;;;;;14.73;11.37;;;5.60;99.90;;;;;;5031476;28;20203;-67
2021/03/17 08:27:23;;;;;;;13.77;10.23;;;5.80;99.90;;;;;;5030274;28;20266;-67
2021/03/17 08:30:10;;;;;;;16.63;10.40;;;5.70;99.90;;;;;;5031084;28;20227;-67
2021/03/17 08:32:55;;;;;;;13.63;9.73;;;5.80;99.90;;;;;;5030270;28;20178;-67
2021/03/17 08:35:21;;;;;;;10.37;7.80;;;6.10;99.90;;;;;;5031388;28;20195;-67
2021/03/17 08:37:49;;;;;;;8.57;6.60;;;6.30;99.90;;;;;;5031227;28;20172;-67
2021/03/17 08:40:27;;;;;;;9.50;7.27;;;6.30;99.90;;;;;;5030956;28;20191;-67
2021/03/17 08:42:52;;;;;;;6.97;6.17;;;6.40;99.90;;;;;;5031385;28;20183;-64
2021/03/17 08:45:20;;;;;;;6.77;5.93;;;6.50;99.90;;;;;;5031342;28;20186;-64
2021/03/17 08:47:47;;;;;;;9.00;5.70;;;6.90;99.90;;;;;;5031112;28;20179;-64
2021/03/17 08:50:17;;;;;;;6.43;4.93;;;7.30;99.90;;;;;;5031028;28;20191;-65
2021/03/17 08:52:48;;;;;;;8.17;6.37;;;7.50;99.90;;;;;;5030905;28;20183;-63
2021/03/17 08:55:20;;;;;;;9.57;6.93;;;7.60;99.90;;;;;;5031129;28;20257;-66
2021/03/17 08:58:00;;;;;;;8.03;6.63;;;7.50;99.90;;;;;;5031019;28;20211;-66
2021/03/17 09:00:52;;;;;;;8.67;6.03;;;7.60;99.90;;;;;;5030662;28;20199;-64
2021/03/17 09:03:39;;;;;;;8.20;6.00;;;8.00;99.90;;;;;;5031213;28;20179;-64
2021/03/17 09:06:12;;;;;;;7.40;5.80;;;8.50;99.90;;;;;;5030787;28;20177;-64
2021/03/17 09:09:30;;;;;;;7.93;6.13;;;8.60;99.90;;;;;;5030599;28;20271;-63
2021/03/17 09:11:58;;;;;;;7.83;5.67;;;8.70;99.90;;;;;;5017011;28;20529;-65
2021/03/17 09:14:27;;;;;;;10.23;6.67;;;8.60;99.90;;;;;;5031043;28;20188;-63
2021/03/17 09:17:26;;;;;;;9.93;6.63;;;8.20;99.90;;;;;;5030876;28;20205;-64
2021/03/17 09:20:04;;;;;;;9.40;5.90;;;7.80;99.90;;;;;;5029385;28;20278;-67
2021/03/17 09:22:43;;;;;;;6.87;5.77;;;7.90;99.90;;;;;;5030622;28;20191;-67
2021/03/17 09:25:17;;;;;;;9.60;5.37;;;8.30;99.90;;;;;;5030836;28;20175;-66
2021/03/17 09:27:54;;;;;;;8.03;6.63;;;8.30;99.90;;;;;;5029636;28;20186;-66
2021/03/17 09:30:23;;;;;;;6.70;5.57;;;8.10;99.90;;;;;;5030316;28;20501;-66
2021/03/17 09:32:49;;;;;;;7.63;6.83;;;7.90;99.90;;;;;;5030035;28;20306;-65
2021/03/17 09:35:16;;;;;;;10.00;5.93;;;7.80;99.90;;;;;;5030397;28;20207;-66
2021/03/17 09:37:43;;;;;;;10.23;6.17;;;7.90;99.90;;;;;;5031043;28;20171;-66
2021/03/17 09:40:13;;;;;;;8.97;6.20;;;8.00;99.90;;;;;;5032716;28;20200;-66
2021/03/17 09:42:39;;;;;;;4.53;3.50;;;8.00;99.90;;;;;;5034727;28;20176;-66
2021/03/17 09:45:07;;;;;;;4.30;3.87;;;8.10;99.90;;;;;;5034343;28;20237;-66
2021/03/17 09:47:33;;;;;;;5.87;4.07;;;8.40;99.90;;;;;;5034460;28;20660;-67
2021/03/17 09:49:59;;;;;;;5.40;4.87;;;8.90;99.90;;;;;;5033913;28;20290;-66
2021/03/17 09:52:25;;;;;;;7.40;4.07;;;9.10;99.90;;;;;;5034012;28;20199;-65
2021/03/17 09:54:51;;;;;;;8.47;4.30;;;9.50;99.90;;;;;;5034166;28;20203;-66
2021/03/17 09:57:17;;;;;;;7.07;3.67;;;9.80;99.90;;;;;;5034332;28;20175;-66
2021/03/17 09:59:44;;;;;;;5.33;4.37;;;10.10;99.90;;;;;;5033700;28;20178;-66
2021/03/17 10:02:22;;;;;;;4.93;4.20;;;10.30;99.90;;;;;;5034029;28;20171;-66
2021/03/17 10:04:50;;;;;;;6.57;4.53;;;10.50;99.90;;;;;;5033910;28;20172;-65
2021/03/17 10:07:19;;;;;;;7.07;3.97;;;10.50;99.90;;;;;;5034210;28;20171;-66
2021/03/17 10:09:45;;;;;;;6.47;3.50;;;10.60;99.90;;;;;;5033454;28;20168;-65
2021/03/17 10:12:23;;;;;;;3.73;2.73;;;10.60;99.90;;;;;;5033679;28;20175;-65
2021/03/17 10:15:05;;;;;;;2.77;2.40;;;10.00;99.90;;;;;;5033743;28;20680;-66
2021/03/17 10:17:31;;;;;;;2.77;2.30;;;9.40;99.90;;;;;;5014430;28;20180;-65
2021/03/17 10:20:06;;;;;;;3.43;2.40;;;8.70;99.90;;;;;;5015355;28;20593;-67
2021/03/17 10:22:32;;;;;;;5.30;2.00;;;8.20;99.90;;;;;;5034054;28;20185;-66
2021/03/17 10:25:04;;;;;;;2.50;1.90;;;7.80;99.90;;;;;;5033708;28;20546;-65
2021/03/17 10:27:41;;;;;;;2.47;2.27;;;7.50;99.90;;;;;;5034094;28;20307;-66
2021/03/17 10:30:27;;;;;;;4.27;2.20;;;7.40;99.90;;;;;;5033081;28;20733;-66
2021/03/17 10:32:55;;;;;;;2.47;2.23;;;7.40;99.90;;;;;;5033298;28;20179;-66
2021/03/17 10:35:22;;;;;;;3.00;2.43;;;7.50;99.90;;;;;;5034185;28;20203;-66
2021/03/17 10:37:49;;;;;;;5.00;2.83;;;7.50;99.90;;;;;;5033867;28;20195;-66
2021/03/17 10:40:18;;;;;;;3.17;2.70;;;7.60;99.90;;;;;;5032986;28;20192;-66
2021/03/17 10:43:04;;;;;;;5.30;2.83;;;7.70;99.90;;;;;;5033341;28;20589;-66
2021/03/17 10:45:32;;;;;;;7.10;3.30;;;7.90;99.90;;;;;;5026140;28;20592;-66
2021/03/17 10:48:09;;;;;;;4.63;2.50;;;7.90;99.90;;;;;;5033564;28;20598;-66
2021/03/17 10:50:36;;;;;;;4.70;2.50;;;8.10;99.90;;;;;;5031994;28;20840;-67
2021/03/17 10:53:15;;;;;;;3.00;2.47;;;7.40;99.90;;;;;;5033414;28;20179;-66
2021/03/17 10:55:41;;;;;;;3.83;2.27;;;6.80;99.90;;;;;;5033183;28;20703;-66
2021/03/17 10:58:14;;;;;;;4.03;2.50;;;6.70;99.90;;;;;;5033301;28;20175;-66
2021/03/17 11:00:41;;;;;;;3.57;2.50;;;6.90;99.90;;;;;;5032655;28;20195;-66
2021/03/17 11:03:31;;;;;;;5.47;2.63;;;7.30;99.90;;;;;;5033303;28;20541;-65
2021/03/17 11:06:18;;;;;;;5.70;2.50;;;7.70;99.90;;;;;;5032713;28;20190;-66
2021/03/17 11:09:01;;;;;;;3.17;2.67;;;8.00;99.90;;;;;;5033454;28;20672;-66
2021/03/17 11:11:28;;;;;;;5.57;2.27;;;8.10;99.90;;;;;;5031995;28;20206;-65
2021/03/17 11:13:53;;;;;;;4.53;2.23;;;8.40;99.90;;;;;;5033278;28;20175;-66
2021/03/17 11:16:28;;;;;;;5.93;2.50;;;8.50;99.90;;;;;;5032628;28;20561;-66
2021/03/17 11:18:56;;;;;;;2.87;2.50;;;8.50;99.90;;;;;;5032975;28;20167;-66
2021/03/17 11:21:29;;;;;;;3.50;2.60;;;8.70;99.90;;;;;;5032428;28;20541;-66
2021/03/17 11:23:57;;;;;;;5.13;2.13;;;8.50;99.90;;;;;;5033153;28;20175;-66
2021/03/17 11:26:25;;;;;;;3.23;2.20;;;8.50;99.90;;;;;;5032399;28;20593;-66
2021/03/17 11:28:52;;;;;;;2.53;2.20;;;8.70;99.90;;;;;;5032912;28;20175;-65
2021/03/17 11:31:30;;;;;;;2.87;2.10;;;9.10;99.90;;;;;;5031674;28;20291;-65
2021/03/17 11:33:56;;;;;;;3.07;2.20;;;9.40;99.90;;;;;;5032544;28;20657;-66
2021/03/17 11:36:22;;;;;;;2.80;2.30;;;9.30;99.90;;;;;;5032172;28;20264;-66
2021/03/17 11:38:48;;;;;;;2.80;2.30;;;9.30;99.90;;;;;;5031218;28;20202;-66
2021/03/17 11:41:14;;;;;;;3.93;2.03;;;9.00;99.90;;;;;;5031928;28;20203;-65
2021/03/17 11:43:39;;;;;;;2.27;1.97;;;8.90;99.90;;;;;;5032612;28;20267;-65
2021/03/17 11:46:05;;;;;;;3.63;2.10;;;8.90;99.90;;;;;;5032211;28;20270;-66
2021/03/17 11:48:31;;;;;;;2.33;1.73;;;9.60;99.90;;;;;;5032464;28;20219;-64
2021/03/17 11:51:00;;;;;;;2.93;2.13;;;10.60;99.90;;;;;;5031410;28;20277;-65
2021/03/17 11:53:27;;;;;;;5.47;2.27;;;11.70;99.90;;;;;;5032220;28;20175;-66
2021/03/17 11:55:53;;;;;;;5.27;2.10;;;11.40;99.90;;;;;;5031946;28;20222;-65
2021/03/17 11:58:20;;;;;;;2.83;2.03;;;10.80;99.90;;;;;;5031747;28;20581;-66
2021/03/17 12:00:46;;;;;;;3.63;2.10;;;10.10;99.90;;;;;;5031661;28;20199;-66
2021/03/17 12:03:12;;;;;;;4.33;2.63;;;9.70;99.90;;;;;;5031248;28;20182;-66
2021/03/17 12:05:39;;;;;;;3.43;2.23;;;9.30;99.90;;;;;;5031965;28;20179;-65
2021/03/17 12:08:05;;;;;;;2.13;2.00;;;8.90;99.90;;;;;;5031780;28;20175;-66
2021/03/17 12:10:31;;;;;;;4.57;2.07;;;8.50;99.90;;;;;;5031265;28;20707;-65
2021/03/17 12:12:57;;;;;;;4.30;2.30;;;8.30;99.90;;;;;;5031822;28;20202;-65
2021/03/17 12:15:24;;;;;;;6.07;2.43;;;8.20;99.90;;;;;;5031459;28;20223;-66
2021/03/17 12:17:50;;;;;;;5.23;2.40;;;8.20;99.90;;;;;;5031555;28;20188;-66
2021/03/17 12:20:18;;;;;;;2.53;2.30;;;8.30;99.90;;;;;;5031177;28;20230;-66
2021/03/17 12:22:45;;;;;;;6.33;2.73;;;8.20;99.90;;;;;;5031736;28;20552;-65
2021/03/17 12:25:12;;;;;;;6.67;2.37;;;7.90;99.90;;;;;;5031127;28;20183;-66
2021/03/17 12:27:39;;;;;;;2.77;2.47;;;7.70;99.90;;;;;;5031563;28;20262;-66
2021/03/17 12:30:09;;;;;;;4.53;2.00;;;7.80;99.90;;;;;;5031385;28;20199;-65
2021/03/17 12:32:35;;;;;;;5.03;2.30;;;7.70;99.90;;;;;;5030820;28;20175;-65
2021/03/17 12:35:01;;;;;;;3.27;2.40;;;7.50;99.90;;;;;;5031251;28;20218;-65
2021/03/17 12:37:27;;;;;;;2.77;2.50;;;7.50;99.90;;;;;;5031234;28;20190;-65
2021/03/17 12:39:52;;;;;;;3.73;1.93;;;7.60;99.90;;;;;;5031478;28;20685;-66
2021/03/17 12:42:18;;;;;;;3.37;1.80;;;7.80;99.90;;;;;;5030988;28;20637;-66
2021/03/17 12:44:43;;;;;;;4.30;2.07;;;7.90;99.90;;;;;;5031588;28;20262;-65
2021/03/17 12:47:09;;;;;;;2.63;2.07;;;7.90;99.90;;;;;;5031176;28;20187;-65
2021/03/17 12:49:36;;;;;;;4.63;2.00;;;7.90;99.90;;;;;;5031538;28;20648;-65
2021/03/17 12:52:03;;;;;;;5.80;2.30;;;8.10;99.90;;;;;;5030645;28;20198;-65
2021/03/17 12:54:28;;;;;;;3.97;2.50;;;8.60;99.90;;;;;;5030947;28;20207;-65
2021/03/17 12:56:54;;;;;;;5.07;1.97;;;9.40;99.90;;;;;;5031199;28;20603;-65
2021/03/17 12:59:19;;;;;;;4.20;2.33;;;10.00;99.90;;;;;;5031205;28;20176;-66
2021/03/17 13:01:45;;;;;;;3.27;1.97;;;10.90;99.90;;;;;;5030587;28;20534;-66